Time;durP1;ratioP1;P1;durP2;ratioP2;P2;SDS_P1;SDS_P2;PMS_P1;PMS_P2;Temp;Humidity;BMP_temperature;BMP_pressure;BME280_temperature;BME280_humidity;BME280_pressure;Samples;Min_cycle;Max_cycle;Signal;HPM_P1;HPM_P2
2023/03/04 00:01:11;;;;;;;114.93;50.67;;;2.60;99.90;;;1.33;100.00;97844.59;4993770;28;20895;-73
2023/03/04 00:03:38;;;;;;;116.93;50.33;;;2.60;99.90;;;1.35;100.00;97843.44;5011300;28;20479;-72
2023/03/04 00:06:06;;;;;;;105.13;46.80;;;2.70;99.90;;;1.37;100.00;97843.25;5011424;28;20937;-73
2023/03/04 00:08:32;;;;;;;119.65;52.85;;;2.70;99.90;;;1.39;100.00;97841.25;5011534;28;20437;-73
2023/03/04 00:10:57;;;;;;;112.47;48.03;;;2.70;99.90;;;1.37;100.00;97846.66;5011293;28;20901;-73
2023/03/04 00:13:24;;;;;;;121.65;51.75;;;2.70;99.90;;;1.41;100.00;97845.31;5010581;28;20409;-73
2023/03/04 00:15:51;;;;;;;108.85;48.70;;;2.70;99.90;;;1.42;100.00;97846.13;5011254;28;20436;-73
2023/03/04 00:18:17;;;;;;;102.80;44.67;;;2.70;99.90;;;1.40;100.00;97845.50;5011296;28;20433;-72
2023/03/04 00:20:45;;;;;;;103.63;44.92;;;2.70;99.90;;;1.38;100.00;97839.66;5011272;28;20508;-73
2023/03/04 00:23:10;;;;;;;104.03;46.22;;;2.70;99.90;;;1.38;100.00;97844.84;5010929;28;20791;-73
2023/03/04 00:25:36;;;;;;;98.17;45.10;;;2.70;99.90;;;1.35;100.00;97840.84;5011164;28;20515;-72
2023/03/04 00:28:03;;;;;;;95.38;43.30;;;2.60;99.90;;;1.31;100.00;97844.78;5011147;28;20485;-73
2023/03/04 00:30:29;;;;;;;99.82;43.90;;;2.60;99.90;;;1.27;100.00;97842.72;5010976;28;20400;-72
2023/03/04 00:32:55;;;;;;;109.13;44.63;;;2.60;99.90;;;1.26;100.00;97844.53;5010747;28;20407;-73
2023/03/04 00:35:20;;;;;;;99.95;44.33;;;2.60;99.90;;;1.16;100.00;97839.56;5011013;28;20791;-72
2023/03/04 00:37:48;;;;;;;86.10;40.97;;;2.50;99.90;;;1.13;100.00;97850.34;5010984;28;20408;-72
2023/03/04 00:40:14;;;;;;;97.13;44.65;;;2.40;99.90;;;1.09;100.00;97841.28;4993131;28;20443;-73
2023/03/04 00:42:40;;;;;;;94.38;43.20;;;2.40;99.90;;;1.06;100.00;97839.03;5010666;28;20420;-72
2023/03/04 00:45:08;;;;;;;87.57;40.17;;;2.40;99.90;;;1.00;100.00;97846.75;5010802;28;20416;-73
2023/03/04 00:47:34;;;;;;;99.63;43.20;;;2.30;99.90;;;0.93;100.00;97846.66;5010614;28;20412;-73
2023/03/04 00:50:00;;;;;;;97.50;44.15;;;2.30;99.90;;;0.92;100.00;97842.44;5010589;28;20532;-72
2023/03/04 00:52:26;;;;;;;103.87;44.17;;;2.20;99.90;;;0.92;100.00;97844.22;5010365;28;20493;-72
2023/03/04 00:54:53;;;;;;;92.75;42.58;;;2.20;99.90;;;0.85;100.00;97840.72;5010644;28;20392;-72
2023/03/04 00:57:19;;;;;;;82.40;39.45;;;2.10;99.90;;;0.79;100.00;97839.66;5010616;28;20405;-73
2023/03/04 00:59:45;;;;;;;96.28;43.45;;;2.10;99.90;;;0.73;100.00;97832.53;5010513;28;20404;-73
2023/03/04 01:02:11;;;;;;;92.20;43.28;;;2.10;99.90;;;0.72;100.00;97841.34;5010264;28;20786;-72
2023/03/04 01:04:37;;;;;;;87.13;41.10;;;2.00;99.90;;;0.66;100.00;97839.44;5010475;28;20626;-72
2023/03/04 01:07:03;;;;;;;92.88;42.97;;;2.00;99.90;;;0.69;100.00;97837.28;5002742;28;20421;-72
2023/03/04 01:09:30;;;;;;;94.25;43.05;;;2.00;99.90;;;0.63;100.00;97835.41;4990843;28;20429;-72
2023/03/04 01:11:58;;;;;;;78.35;39.38;;;1.90;99.90;;;0.58;100.00;97834.31;4990572;28;20864;-73
2023/03/04 01:14:25;;;;;;;91.20;42.78;;;1.90;99.90;;;0.60;100.00;97827.16;4973379;28;20823;-72
2023/03/04 01:16:51;;;;;;;75.00;37.35;;;1.90;99.90;;;0.51;100.00;97830.81;4990776;28;20403;-72
2023/03/04 01:19:17;;;;;;;83.53;38.25;;;1.90;99.90;;;0.50;100.00;97829.19;4990821;28;20395;-72
2023/03/04 01:21:43;;;;;;;87.30;40.65;;;1.80;99.90;;;0.52;100.00;97827.22;4990449;28;20442;-73
2023/03/04 01:24:09;;;;;;;89.30;42.15;;;1.80;99.90;;;0.50;100.00;97821.38;4973170;28;20430;-73
2023/03/04 01:26:35;;;;;;;81.47;38.60;;;1.90;99.90;;;0.46;100.00;97831.31;4992693;28;20412;-73
2023/03/04 01:29:02;;;;;;;84.65;38.42;;;1.80;99.90;;;0.42;100.00;97824.03;4994783;28;20418;-73
2023/03/04 01:31:28;;;;;;;92.32;42.08;;;1.80;99.90;;;0.41;100.00;97817.22;4994463;28;20911;-73
2023/03/04 01:33:55;;;;;;;77.50;37.13;;;1.80;99.90;;;0.35;100.00;97822.13;4994834;28;20406;-73
2023/03/04 01:36:21;;;;;;;89.55;39.53;;;1.70;99.90;;;0.34;100.00;97820.53;4994724;28;20410;-73
2023/03/04 01:38:47;;;;;;;89.18;39.75;;;1.70;99.90;;;0.35;100.00;97826.53;4994598;28;20501;-73
2023/03/04 01:41:22;;;;;;;89.10;40.67;;;1.70;99.90;;;0.37;100.00;97812.38;4994352;28;20493;-73
2023/03/04 01:43:49;;;;;;;83.72;39.47;;;1.70;99.90;;;0.28;100.00;97823.03;4993238;28;20480;-73
2023/03/04 01:46:16;;;;;;;73.28;36.97;;;1.60;99.90;;;0.25;100.00;97821.56;4994518;28;20402;-73
2023/03/04 01:48:43;;;;;;;80.32;36.60;;;1.60;99.90;;;0.25;100.00;97820.75;4994473;28;20531;-72
2023/03/04 01:51:14;;;;;;;83.13;36.85;;;1.60;99.90;;;0.23;100.00;97813.09;4994272;28;20907;-73
2023/03/04 01:53:41;;;;;;;85.13;41.28;;;1.60;99.90;;;0.21;100.00;97816.91;4994195;28;21066;-73
2023/03/04 01:56:15;;;;;;;89.15;41.03;;;1.60;99.90;;;0.18;100.00;97815.44;4994254;28;20493;-73
2023/03/04 01:58:41;;;;;;;99.32;42.88;;;1.50;99.90;;;0.17;100.00;97811.22;4994392;28;20403;-73
2023/03/04 02:01:09;;;;;;;92.80;43.23;;;1.50;99.90;;;0.14;100.00;97814.19;4994113;28;20892;-72
2023/03/04 02:03:37;;;;;;;90.75;42.90;;;1.50;99.90;;;0.11;100.00;97811.91;4994181;28;20413;-72
2023/03/04 02:06:04;;;;;;;90.43;41.67;;;1.50;99.90;;;0.08;100.00;97822.66;4994168;28;20546;-73
2023/03/04 02:08:30;;;;;;;85.68;41.08;;;1.40;99.90;;;0.07;100.00;97815.06;4994147;28;20399;-73
2023/03/04 02:10:56;;;;;;;95.90;43.90;;;1.40;99.90;;;0.07;100.00;97807.25;4993985;28;20422;-73
2023/03/04 02:13:22;;;;;;;97.45;43.85;;;1.40;99.90;;;0.05;100.00;97804.81;4993821;28;20402;-73
2023/03/04 02:15:48;;;;;;;91.10;41.92;;;1.40;99.90;;;-0.01;100.00;97801.13;4976431;28;20780;-73
2023/03/04 02:18:18;;;;;;;89.65;42.10;;;1.40;99.90;;;0.00;100.00;97801.94;4994042;28;20406;-73
2023/03/04 02:20:55;;;;;;;98.72;44.72;;;1.40;99.90;;;0.02;100.00;97809.53;4993870;28;20418;-72
2023/03/04 02:23:29;;;;;;;92.95;43.28;;;1.40;99.90;;;0.02;100.00;97801.72;4993690;28;20406;-73
2023/03/04 02:26:14;;;;;;;92.35;41.85;;;1.40;99.90;;;-0.01;100.00;97806.31;4993888;28;20759;-73
2023/03/04 02:28:40;;;;;;;95.15;43.38;;;1.40;99.90;;;0.04;100.00;97800.59;4993854;28;20406;-73
2023/03/04 02:31:15;;;;;;;96.70;44.30;;;1.40;99.90;;;0.06;100.00;97803.03;4993548;28;20404;-73
2023/03/04 02:33:41;;;;;;;89.05;41.75;;;1.40;99.90;;;0.07;100.00;97810.66;4993646;28;20477;-73
2023/03/04 02:36:09;;;;;;;93.80;44.95;;;1.40;99.90;;;0.07;100.00;97800.25;4976062;28;20502;-72
2023/03/04 02:38:34;;;;;;;101.50;45.80;;;1.40;99.90;;;0.08;100.00;97803.63;4993324;28;20493;-73
2023/03/04 06:26:10;;;;;;;118.85;45.30;;;-0.10;99.90;;;-1.64;100.00;97849.47;6041407;23;20402;31
2023/03/04 06:28:37;;;;;;;113.97;44.60;;;-0.20;99.90;;;-1.55;100.00;97873.66;4923582;29;20407;-82
2023/03/04 06:31:05;;;;;;;125.10;46.10;;;-0.10;99.90;;;-1.64;100.00;97846.88;4943066;29;20448;-83
2023/03/04 06:33:31;;;;;;;127.90;50.25;;;-0.10;99.90;;;-1.49;100.00;97877.38;4930932;28;20504;-79
2023/03/04 06:35:57;;;;;;;129.88;48.85;;;-0.10;99.90;;;-1.47;100.00;97885.81;4923691;29;20898;-81
2023/03/04 06:38:24;;;;;;;122.45;48.60;;;0.00;99.90;;;-1.44;100.00;97883.72;4922157;29;20432;-76
2023/03/04 06:40:50;;;;;;;140.07;51.83;;;0.00;99.90;;;-1.34;100.00;97880.94;4910414;29;20410;-78
2023/03/04 06:43:17;;;;;;;131.27;48.75;;;0.00;99.90;;;-1.26;100.00;97889.53;4925681;29;20499;-79
2023/03/04 06:45:44;;;;;;;131.07;49.43;;;0.10;99.90;;;-1.13;100.00;97891.66;4926062;29;20433;-80
2023/03/04 06:48:10;;;;;;;132.27;49.13;;;0.20;99.90;;;-1.01;100.00;97897.28;4914347;29;20457;-78
2023/03/04 06:50:35;;;;;;;135.75;50.28;;;0.30;99.90;;;-0.88;100.00;97894.97;4923476;29;20457;-82
2023/03/04 06:53:01;;;;;;;132.63;50.45;;;0.50;99.90;;;-0.74;100.00;97890.88;4935906;29;20413;-81
2023/03/04 07:00:40;;;;;;;122.72;49.60;;;0.90;99.90;;;-0.43;100.00;97878.75;5885594;23;20431;-82
2023/03/04 07:03:06;;;;;;;103.67;43.47;;;0.90;99.90;;;-0.33;100.00;97892.38;5435221;23;20402;-79
2023/03/04 07:05:31;;;;;;;107.68;44.80;;;1.10;99.90;;;-0.12;100.00;97902.97;4944725;29;20437;-83
2023/03/04 07:07:57;;;;;;;109.70;45.77;;;1.10;99.90;;;-0.07;100.00;97908.47;4939111;29;20432;-82
2023/03/04 07:10:23;;;;;;;97.53;41.17;;;1.20;99.90;;;0.00;100.00;97906.03;4935687;29;20443;-81
2023/03/04 07:12:49;;;;;;;101.72;41.72;;;1.30;99.90;;;0.07;100.00;97906.97;4921865;29;20459;-81
2023/03/04 07:15:15;;;;;;;103.20;42.97;;;1.40;99.90;;;0.15;100.00;97913.91;4917153;28;20434;-81
2023/03/04 07:17:42;;;;;;;92.95;39.50;;;1.40;99.90;;;0.15;100.00;97916.50;4917120;29;20425;-81
2023/03/04 07:20:10;;;;;;;106.38;45.40;;;1.40;99.90;;;0.18;100.00;97918.75;4917679;29;20435;-77
2023/03/04 07:22:36;;;;;;;95.18;41.97;;;1.50;99.90;;;0.20;100.00;97917.59;4912490;29;20779;-78
2023/03/04 07:25:03;;;;;;;95.43;40.73;;;1.50;99.90;;;0.31;100.00;97921.59;4917916;29;20429;-83
2023/03/04 07:27:28;;;;;;;88.22;40.55;;;1.50;99.90;;;0.27;100.00;97923.75;4923871;29;20512;-82
2023/03/04 07:29:54;;;;;;;77.72;38.63;;;1.50;99.90;;;0.20;100.00;97929.81;4920872;29;20488;-82
2023/03/04 07:32:20;;;;;;;78.30;37.03;;;1.40;99.90;;;0.20;100.00;97925.41;4924878;29;20429;-82
2023/03/04 07:34:47;;;;;;;73.90;34.47;;;1.50;99.90;;;0.24;100.00;97929.28;4928265;29;20405;-83
2023/03/04 07:37:13;;;;;;;76.50;35.22;;;1.50;99.90;;;0.31;100.00;97916.38;4930348;29;20532;-82
2023/03/04 07:39:39;;;;;;;77.18;35.95;;;1.60;99.90;;;0.38;100.00;97919.91;4926015;29;20425;-82
2023/03/04 07:42:05;;;;;;;92.32;40.67;;;1.60;99.90;;;0.44;100.00;97928.84;4917049;29;20884;-82
2023/03/04 07:44:31;;;;;;;84.30;38.43;;;1.70;99.90;;;0.50;100.00;97923.75;4926831;29;20429;-82
2023/03/04 07:46:57;;;;;;;84.25;37.30;;;1.80;99.90;;;0.55;100.00;97925.81;4930967;29;20485;-82
2023/03/04 07:49:23;;;;;;;77.82;35.80;;;1.80;99.90;;;0.60;100.00;97931.34;4922842;29;20513;-83
2023/03/04 07:51:50;;;;;;;91.20;39.20;;;1.90;99.90;;;0.66;100.00;97938.44;4929044;29;20441;-83
2023/03/04 07:54:18;;;;;;;84.43;36.92;;;1.90;99.90;;;0.68;100.00;97939.88;4929548;29;20417;-82
2023/03/04 07:56:45;;;;;;;87.47;39.57;;;1.90;99.90;;;0.71;100.00;97933.50;4921771;29;20424;-84
2023/03/04 07:59:11;;;;;;;90.97;41.72;;;2.00;99.90;;;0.69;100.00;97948.50;4921047;29;20409;-83
2023/03/04 08:01:37;;;;;;;76.30;35.92;;;1.90;99.90;;;0.65;100.00;97945.44;4924898;29;20421;-83
2023/03/04 08:04:05;;;;;;;86.28;38.60;;;1.90;99.90;;;0.65;100.00;97955.88;4921983;29;20492;-84
2023/03/04 08:06:32;;;;;;;78.53;36.63;;;1.90;99.90;;;0.61;100.00;97945.94;4920788;29;20420;-82
2023/03/04 08:09:02;;;;;;;72.90;35.05;;;1.80;99.90;;;0.59;100.00;97945.34;4920343;29;20413;-80
2023/03/04 08:11:29;;;;;;;81.65;36.35;;;1.80;99.90;;;0.60;100.00;97952.94;4921523;29;20469;-79
2023/03/04 08:13:57;;;;;;;83.60;35.87;;;1.80;99.90;;;0.64;100.00;97946.44;4915705;29;21045;-79
2023/03/04 08:16:24;;;;;;;85.87;38.93;;;1.90;99.90;;;0.67;100.00;97951.31;4917255;29;20484;-77
2023/03/04 08:18:53;;;;;;;82.20;37.22;;;2.00;99.90;;;0.72;100.00;97950.78;4912219;29;20755;-77
2023/03/04 08:21:20;;;;;;;77.50;34.77;;;2.00;99.90;;;0.76;100.00;97958.06;4914537;29;20951;-80
2023/03/04 08:23:47;;;;;;;73.85;34.40;;;2.10;99.90;;;0.81;100.00;97952.34;4921215;29;20428;-80
2023/03/04 08:26:20;;;;;;;88.22;36.50;;;2.10;99.90;;;0.89;100.00;97961.88;4917929;29;20429;-80
2023/03/04 08:28:46;;;;;;;97.93;40.70;;;2.20;99.90;;;0.93;100.00;97966.56;4919727;29;20540;-79
2023/03/04 08:31:13;;;;;;;94.07;39.83;;;2.20;99.90;;;0.97;100.00;97961.81;4923422;29;20412;-84
2023/03/04 08:33:40;;;;;;;93.45;41.00;;;2.20;99.90;;;1.00;100.00;97970.06;4923318;29;20418;-83
2023/03/04 08:36:07;;;;;;;84.53;38.28;;;2.20;99.90;;;1.03;100.00;97972.34;4923693;29;20844;-83
2023/03/04 08:38:33;;;;;;;87.18;37.42;;;2.30;99.90;;;1.03;100.00;97971.53;4928327;29;20490;-83
2023/03/04 08:40:59;;;;;;;87.88;36.92;;;2.30;99.90;;;1.07;100.00;97964.97;4940069;23;20487;-72
2023/03/04 08:43:27;;;;;;;85.35;37.20;;;2.30;99.90;;;1.10;100.00;97973.25;4931378;28;20500;-72
2023/03/04 08:45:53;;;;;;;99.82;42.17;;;2.30;99.90;;;1.15;100.00;97975.31;4927629;29;20754;-71
2023/03/04 08:48:21;;;;;;;94.47;40.15;;;2.40;99.90;;;1.15;100.00;97977.94;4933436;28;20426;-71
2023/03/04 08:50:48;;;;;;;96.63;42.15;;;2.40;99.90;;;1.15;100.00;97980.53;4931667;28;20413;-72
2023/03/04 08:53:19;;;;;;;92.40;40.20;;;2.40;99.90;;;1.14;100.00;97978.91;4929489;28;20497;-73
2023/03/04 08:55:45;;;;;;;97.28;41.97;;;2.40;99.90;;;1.14;100.00;97978.91;4936223;28;21033;-72
2023/03/04 08:58:13;;;;;;;84.07;38.88;;;2.40;99.90;;;1.15;100.00;97976.13;4930294;28;20418;-72
2023/03/04 09:00:44;;;;;;;89.77;39.17;;;2.40;99.90;;;1.18;100.00;97974.97;4927005;29;20434;-72
2023/03/04 09:03:11;;;;;;;99.80;43.83;;;2.40;99.90;;;1.22;100.00;97976.22;4929662;29;20392;-72
2023/03/04 09:05:38;;;;;;;88.65;39.13;;;2.40;99.90;;;1.28;100.00;97972.91;4927360;29;20432;-73
2023/03/04 09:08:04;;;;;;;87.45;38.53;;;2.50;99.90;;;1.33;100.00;97975.00;4930993;29;20431;-72
2023/03/04 09:10:30;;;;;;;95.88;42.17;;;2.60;99.90;;;1.37;100.00;97981.47;4941246;28;20807;-73
2023/03/04 09:13:00;;;;;;;90.73;40.53;;;2.60;99.90;;;1.38;100.00;97988.31;4926597;28;20425;-72
2023/03/04 09:15:26;;;;;;;79.30;36.95;;;2.60;99.90;;;1.41;100.00;97983.56;4932963;28;20429;-73
2023/03/04 09:17:54;;;;;;;94.05;41.08;;;2.60;99.90;;;1.44;100.00;97979.75;4929432;28;20418;-73
2023/03/04 09:20:21;;;;;;;83.75;39.72;;;2.70;99.90;;;1.49;100.00;97985.28;4945253;28;20458;-72
2023/03/04 09:22:47;;;;;;;78.03;36.83;;;2.70;99.90;;;1.53;100.00;97983.91;4926244;28;20405;-74
2023/03/04 09:25:14;;;;;;;82.03;38.78;;;2.70;99.90;;;1.49;100.00;97985.28;4934457;28;20514;-72
2023/03/04 09:27:40;;;;;;;78.32;37.38;;;2.70;99.90;;;1.53;100.00;97981.31;4929129;29;20423;-72
2023/03/04 09:30:08;;;;;;;76.75;36.80;;;2.70;99.90;;;1.51;100.00;97986.69;4928783;29;20474;-72
2023/03/04 09:32:34;;;;;;;78.60;36.35;;;2.70;99.90;;;1.56;100.00;97991.41;4940463;29;20769;-72
2023/03/04 09:35:02;;;;;;;81.28;38.80;;;2.80;99.90;;;1.56;100.00;97983.56;4939971;28;20489;-72
2023/03/04 09:37:28;;;;;;;75.47;35.70;;;2.80;99.90;;;1.63;100.00;97984.47;4941885;28;20425;-73
2023/03/04 09:39:54;;;;;;;87.90;42.25;;;2.80;99.90;;;1.72;100.00;97980.78;4933716;28;20450;-73
2023/03/04 09:42:27;;;;;;;83.13;39.58;;;2.90;99.90;;;1.67;100.00;97980.50;4929293;29;20435;-73
2023/03/04 09:44:54;;;;;;;79.90;37.33;;;2.90;99.90;;;1.72;100.00;97979.97;4930021;29;20852;-73
2023/03/04 09:47:22;;;;;;;70.30;34.30;;;2.90;99.90;;;1.83;100.00;97972.50;4932944;28;20483;-73
2023/03/04 09:49:58;;;;;;;77.75;38.17;;;3.00;99.90;;;2.00;100.00;97970.50;4933989;29;20419;-75
2023/03/04 09:52:43;;;;;;;67.78;34.38;;;3.20;99.90;;;2.15;100.00;97979.13;4929850;29;25125;-73
2023/03/04 09:55:20;;;;;;;64.50;33.42;;;3.30;99.90;;;2.36;100.00;97975.75;4934242;29;20482;-74
2023/03/04 09:57:51;;;;;;;80.30;43.72;;;3.50;99.90;;;2.48;100.00;97979.47;4940924;29;25103;-75
2023/03/04 10:00:22;;;;;;;71.68;38.28;;;3.60;99.90;;;2.55;100.00;97976.94;4935614;29;20441;-75
2023/03/04 10:03:11;;;;;;;67.10;36.35;;;3.70;99.90;;;2.67;100.00;97973.66;4935173;29;20502;-75
2023/03/04 10:05:42;;;;;;;79.70;42.67;;;3.80;99.90;;;2.72;100.00;97986.97;4935401;29;20423;-74
2023/03/04 10:08:35;;;;;;;82.97;43.03;;;3.90;99.90;;;2.77;100.00;97977.78;4936280;29;20404;-74
2023/03/04 10:11:08;;;;;;;66.93;39.38;;;3.90;99.90;;;2.67;100.00;97986.72;4936010;29;20469;-75
2023/03/04 10:13:43;;;;;;;73.18;41.53;;;3.80;99.90;;;2.57;100.00;97985.41;4936110;29;20427;-75
2023/03/04 10:16:17;;;;;;;79.20;44.40;;;3.70;99.90;;;2.68;100.00;97980.50;4936191;29;20403;-74
2023/03/04 10:18:50;;;;;;;76.78;43.53;;;3.80;99.90;;;2.61;100.00;97982.25;4936126;28;20420;-74
2023/03/04 10:21:22;;;;;;;73.55;42.22;;;3.80;99.90;;;2.52;100.00;97975.50;4935799;29;25201;-75
2023/03/04 10:23:49;;;;;;;86.32;47.65;;;3.60;99.90;;;2.53;100.00;97974.53;4936020;29;20463;-75
2023/03/04 10:26:20;;;;;;;85.93;45.40;;;3.70;99.90;;;2.53;100.00;97971.09;4935794;29;20411;-75
2023/03/04 10:28:47;;;;;;;76.95;42.75;;;3.70;99.90;;;2.59;100.00;97975.56;4935868;29;20414;-75
2023/03/04 10:31:21;;;;;;;87.70;48.50;;;3.70;99.90;;;2.59;100.00;97975.56;4935722;29;20976;-75
2023/03/04 10:33:48;;;;;;;81.25;45.42;;;3.70;99.90;;;2.56;100.00;97970.72;4935396;29;25170;-74
2023/03/04 10:36:43;;;;;;;80.45;43.53;;;3.70;99.90;;;2.60;100.00;97964.94;4934554;29;20490;-74
2023/03/04 10:39:16;;;;;;;75.00;42.13;;;3.80;99.90;;;2.61;100.00;97963.94;4932933;29;25190;-78
2023/03/04 10:41:45;;;;;;;83.73;45.53;;;3.80;99.90;;;2.68;100.00;97964.81;4916981;29;25100;-76
2023/03/04 10:44:16;;;;;;;82.07;45.38;;;3.80;99.90;;;2.74;100.00;97960.66;4927371;29;20823;-80
2023/03/04 10:46:44;;;;;;;91.70;49.20;;;3.90;99.90;;;2.76;100.00;97961.28;4926055;29;20859;-80
2023/03/04 10:49:10;;;;;;;101.03;51.85;;;3.90;99.90;;;2.81;100.00;97964.13;4917014;29;20418;-82
2023/03/04 10:51:42;;;;;;;99.88;55.03;;;4.00;99.90;;;2.93;100.00;97964.44;4925506;29;20413;-79
2023/03/04 10:54:22;;;;;;;93.13;49.72;;;4.00;99.90;;;2.78;100.00;97959.28;4923359;29;20405;-75
2023/03/04 10:57:04;;;;;;;103.10;56.73;;;3.90;99.90;;;2.84;100.00;97950.69;4917885;29;20417;-78
2023/03/04 10:59:52;;;;;;;103.32;54.55;;;4.00;99.90;;;2.92;100.00;97952.38;4923984;29;25083;-77
2023/03/04 11:02:25;;;;;;;101.57;55.70;;;4.10;99.90;;;2.96;100.00;97943.94;4929113;29;25169;-77
2023/03/04 11:05:06;;;;;;;97.75;53.85;;;4.10;99.90;;;2.91;100.00;97943.72;4923540;29;20432;-77
2023/03/04 11:07:36;;;;;;;98.60;53.17;;;4.10;99.90;;;2.92;100.00;97941.91;4925089;29;20440;-75
2023/03/04 11:10:16;;;;;;;105.90;56.28;;;4.10;99.90;;;2.99;100.00;97935.72;4926382;29;20766;-76
2023/03/04 11:12:49;;;;;;;109.50;56.38;;;4.10;99.90;;;2.92;100.00;97940.09;4925470;29;25109;-78
2023/03/04 11:15:23;;;;;;;111.60;57.33;;;4.10;99.90;;;3.05;100.00;97945.44;4925422;29;20786;-77
2023/03/04 11:17:53;;;;;;;102.38;56.53;;;4.20;99.90;;;3.13;100.00;97935.81;4915579;29;20449;-78
2023/03/04 11:20:30;;;;;;;103.15;56.83;;;4.20;99.90;;;3.14;100.00;97940.06;4939908;28;20471;-77
2023/03/04 11:23:02;;;;;;;105.38;58.05;;;4.30;99.90;;;3.15;100.00;97936.44;4917196;29;25155;-76
2023/03/04 11:25:34;;;;;;;103.95;56.60;;;4.30;99.90;;;3.10;100.00;97942.22;4916323;29;20500;-76
2023/03/04 11:28:05;;;;;;;110.45;60.70;;;4.20;99.90;;;3.03;100.00;97930.91;4921904;29;20393;-74
2023/03/04 11:30:44;;;;;;;105.63;57.85;;;4.20;99.90;;;3.02;100.00;97926.69;4917636;29;20905;-75
2023/03/04 11:33:25;;;;;;;101.18;54.92;;;4.20;99.90;;;3.10;100.00;97932.59;4932084;28;25168;-75
2023/03/04 11:36:10;;;;;;;102.30;59.08;;;4.20;99.90;;;3.09;100.00;97935.38;4938354;28;20422;-75
2023/03/04 11:38:42;;;;;;;118.50;62.33;;;4.20;99.90;;;3.02;100.00;97934.53;4933744;28;25111;-75
2023/03/04 11:41:15;;;;;;;105.03;57.47;;;4.20;99.90;;;3.03;100.00;97923.88;4953014;28;20493;-75
2023/03/04 11:43:44;;;;;;;95.43;55.50;;;4.20;99.90;;;2.85;100.00;97922.75;4943864;28;20424;-75
2023/03/04 11:46:47;;;;;;;89.32;52.63;;;4.00;99.90;;;2.72;100.00;97924.22;4928857;29;20805;-75
2023/03/04 11:49:59;;;;;;;101.07;56.90;;;3.80;99.90;;;2.80;100.00;97918.06;4929936;28;25096;-75
2023/03/04 11:52:47;;;;;;;107.55;58.25;;;3.90;99.90;;;3.01;100.00;97912.78;4923897;29;25116;-75
2023/03/04 11:55:35;;;;;;;103.57;56.67;;;4.10;99.90;;;2.87;100.00;97916.31;4930456;29;25116;-74
2023/03/04 11:58:36;;;;;;;101.30;56.10;;;4.00;99.90;;;2.96;100.00;97915.19;4923146;29;25126;-74
2023/03/04 12:01:09;;;;;;;94.70;54.70;;;4.10;99.90;;;2.87;100.00;97905.84;4927521;29;20944;-74
2023/03/04 12:04:12;;;;;;;106.82;56.05;;;4.00;99.90;;;2.91;100.00;97903.69;4927228;28;20754;-74
2023/03/04 12:06:54;;;;;;;108.85;58.65;;;4.00;99.90;;;2.96;100.00;97904.72;4925416;29;25109;-75
2023/03/04 12:09:41;;;;;;;107.78;57.33;;;4.10;99.90;;;3.07;100.00;97901.59;4931250;29;25135;-74
2023/03/04 12:12:41;;;;;;;94.65;53.08;;;4.20;99.90;;;3.10;100.00;97897.78;4923596;29;20922;-74
2023/03/04 12:15:18;;;;;;;104.65;55.22;;;4.20;99.90;;;3.12;100.00;97885.31;4928960;29;20413;-74
2023/03/04 12:18:28;;;;;;;90.27;50.83;;;4.30;99.90;;;3.26;100.00;97883.59;4931413;28;25103;-74
2023/03/04 12:21:15;;;;;;;95.32;53.92;;;4.30;99.90;;;3.36;100.00;97882.25;4926566;28;25141;-74
2023/03/04 12:24:18;;;;;;;86.90;50.10;;;4.40;99.90;;;3.27;100.00;97877.34;4922313;29;25175;-74
2023/03/04 12:26:50;;;;;;;87.47;50.70;;;4.40;99.90;;;3.21;100.00;97876.31;4924713;29;25110;-73
2023/03/04 12:29:23;;;;;;;90.60;51.95;;;4.30;99.90;;;3.22;100.00;97879.75;4941170;28;20847;-74
2023/03/04 12:32:02;;;;;;;101.32;55.35;;;4.30;99.90;;;3.20;100.00;97868.66;4937335;28;25202;-75
2023/03/04 12:35:08;;;;;;;102.15;56.20;;;4.30;99.90;;;3.17;100.00;97872.47;4934067;29;20443;-75
2023/03/04 12:37:57;;;;;;;97.97;54.47;;;4.30;99.90;;;3.14;100.00;97861.59;4944645;28;25113;-74
2023/03/04 12:40:33;;;;;;;100.00;55.53;;;4.30;99.90;;;3.12;100.00;97861.78;4950410;28;20959;-74
2023/03/04 12:43:22;;;;;;;95.10;56.38;;;4.30;99.90;;;3.09;100.00;97860.34;4942943;28;20426;-74
2023/03/04 12:46:00;;;;;;;97.53;54.03;;;4.20;99.90;;;3.03;100.00;97853.28;4931477;28;25105;-75
2023/03/04 12:48:32;;;;;;;99.40;55.40;;;4.20;99.90;;;2.93;100.00;97850.19;4935628;29;20397;-74
2023/03/04 12:51:27;;;;;;;97.95;55.38;;;4.10;99.90;;;2.85;100.00;97849.53;4926921;28;20383;-74
2023/03/04 12:54:15;;;;;;;88.47;50.58;;;4.00;99.90;;;2.97;100.00;97848.00;4932525;29;20416;-74
2023/03/04 12:56:47;;;;;;;95.80;55.53;;;4.00;99.90;;;3.04;100.00;97848.84;4934582;28;20451;-75
2023/03/04 12:59:17;;;;;;;98.32;56.60;;;4.20;99.90;;;3.04;100.00;97846.25;4951780;28;20819;-75
2023/03/04 13:01:52;;;;;;;93.82;52.13;;;4.20;99.90;;;3.13;100.00;97841.66;4950472;28;20467;-76
2023/03/04 13:04:28;;;;;;;109.07;58.03;;;4.30;99.90;;;3.15;100.00;97837.88;4947007;28;20768;-75
2023/03/04 13:07:08;;;;;;;97.05;54.88;;;4.30;99.90;;;3.21;100.00;97847.56;4935089;28;20405;-76
2023/03/04 13:09:45;;;;;;;101.90;54.40;;;4.30;99.90;;;3.14;100.00;97838.88;4924265;29;20427;-76
2023/03/04 13:12:15;;;;;;;100.00;56.40;;;4.30;99.90;;;3.09;100.00;97836.81;4928780;29;20429;-77
2023/03/04 13:15:28;;;;;;;99.00;55.22;;;4.20;99.90;;;3.08;100.00;97834.41;4927347;29;20414;-75
2023/03/04 13:17:56;;;;;;;99.22;54.75;;;4.20;99.90;;;3.03;100.00;97844.63;4934666;28;20419;-76
2023/03/04 13:20:37;;;;;;;103.90;56.25;;;4.20;99.90;;;2.96;100.00;97843.78;4932269;28;20412;-75
2023/03/04 13:23:21;;;;;;;102.20;55.75;;;4.20;99.90;;;2.90;100.00;97840.13;4930728;29;20419;-76
2023/03/04 13:25:49;;;;;;;99.07;53.13;;;4.10;99.90;;;2.79;100.00;97839.81;4930524;29;25097;-76
2023/03/04 13:28:26;;;;;;;104.63;55.08;;;3.90;99.90;;;2.81;100.00;97837.84;4931982;28;20887;-77
2023/03/04 13:31:25;;;;;;;98.25;52.60;;;3.90;99.90;;;2.79;100.00;97840.63;4938858;28;25117;-77
2023/03/04 13:34:02;;;;;;;106.10;55.33;;;4.00;99.90;;;2.88;100.00;97833.47;4933748;29;20410;-75
2023/03/04 13:36:54;;;;;;;98.15;53.08;;;4.10;99.90;;;2.89;100.00;97838.50;4941474;28;25130;-75
2023/03/04 13:39:33;;;;;;;102.72;54.17;;;4.00;99.90;;;2.90;100.00;97836.69;4940300;28;20452;-75
2023/03/04 13:42:01;;;;;;;92.10;48.13;;;4.10;99.90;;;2.96;100.00;97839.34;4927566;29;20555;-74
2023/03/04 13:44:58;;;;;;;100.00;51.00;;;4.10;99.90;;;3.01;100.00;97831.72;4932163;28;20977;-75
2023/03/04 13:47:44;;;;;;;81.95;46.08;;;4.10;99.90;;;3.06;100.00;97837.22;4927295;29;20456;-75
2023/03/04 13:50:39;;;;;;;81.97;43.90;;;4.10;99.90;;;3.08;100.00;97834.41;4929386;29;25097;-75
2023/03/04 13:53:41;;;;;;;83.13;43.70;;;4.20;99.90;;;3.09;100.00;97836.81;4923093;29;20940;-76
2023/03/04 13:56:28;;;;;;;83.80;44.93;;;4.20;99.90;;;3.11;100.00;97832.19;4929299;29;25097;-77
2023/03/04 13:59:26;;;;;;;72.97;41.97;;;4.20;99.90;;;2.99;100.00;97825.09;4932453;28;20912;-76
2023/03/04 14:02:07;;;;;;;75.07;41.90;;;4.10;99.90;;;2.99;100.00;97838.16;4940125;28;20414;-74
2023/03/04 14:04:35;;;;;;;175.32;87.93;;;4.10;99.90;;;2.99;100.00;97836.38;4948814;28;20943;-75
2023/03/04 14:07:15;;;;;;;73.72;38.70;;;4.10;99.90;;;2.93;100.00;97842.34;4935294;28;20441;-75
2023/03/04 14:09:55;;;;;;;70.18;38.30;;;4.00;99.90;;;2.86;100.00;97835.44;4935585;28;20498;-73
2023/03/04 14:12:21;;;;;;;71.00;36.90;;;4.00;99.90;;;2.80;100.00;97841.44;4931052;29;20429;-74
2023/03/04 14:14:51;;;;;;;79.13;41.45;;;3.90;99.90;;;2.88;100.00;97825.59;4937163;29;20490;-76
2023/03/04 14:17:22;;;;;;;72.38;37.63;;;4.00;99.90;;;2.81;100.00;97824.75;4932447;29;20416;-76
2023/03/04 14:19:49;;;;;;;72.70;38.60;;;4.00;99.90;;;2.77;100.00;97826.97;4944396;28;20458;-76
2023/03/04 14:22:24;;;;;;;71.73;37.37;;;3.90;99.90;;;2.63;100.00;97825.25;4951312;28;20461;-76